Time;durP1;ratioP1;P1;durP2;ratioP2;P2;SDS_P1;SDS_P2;PMS_P1;PMS_P2;Temp;Humidity;BMP_temperature;BMP_pressure;BME280_temperature;BME280_humidity;BME280_pressure;Samples;Min_cycle;Max_cycle;Signal;HPM_P1;HPM_P2
2022/02/18 00:01:27;;;;;;;0.10;0.10;;;;;;;;;;4432280;32;20390;-53
2022/02/18 00:04:00;;;;;;;0.10;0.10;;;;;;;;;;4428812;32;20086;-56
2022/02/18 00:06:28;;;;;;;0.55;0.10;;;;;;;;;;4430294;32;20042;-53
2022/02/18 00:08:58;;;;;;;0.10;0.10;;;;;;;;;;4430991;32;20041;-55
2022/02/18 00:11:26;;;;;;;0.20;0.20;;;;;;;;;;4430274;32;20520;-55
2022/02/18 00:13:56;;;;;;;0.10;0.10;;;;;;;;;;4435430;32;20425;-55
2022/02/18 00:16:24;;;;;;;0.20;0.10;;;;;;;;;;4440686;32;20045;-53
2022/02/18 00:18:53;;;;;;;0.10;0.10;;;;;;;;;;4428058;32;20123;-53
2022/02/18 00:21:21;;;;;;;0.88;0.15;;;;;;;;;;4440082;32;20364;-55
2022/02/18 00:23:49;;;;;;;0.32;0.10;;;;;;;;;;4432718;32;20161;-55
2022/02/18 00:26:20;;;;;;;0.43;0.15;;;;;;;;;;4442736;32;20459;-53
2022/02/18 00:28:50;;;;;;;0.10;0.10;;;;;;;;;;4429698;32;20030;-54
2022/02/18 00:31:24;;;;;;;1.20;0.20;;;;;;;;;;4424202;32;20046;-55
2022/02/18 00:33:52;;;;;;;0.20;0.20;;;;;;;;;;4434866;32;20064;-62
2022/02/18 00:36:21;;;;;;;0.15;0.13;;;;;;;;;;4433170;32;20061;-52
2022/02/18 00:38:49;;;;;;;0.20;0.20;;;;;;;;;;4444934;32;20093;-55
2022/02/18 00:41:18;;;;;;;0.25;0.10;;;;;;;;;;4431553;32;20030;-53
2022/02/18 00:43:46;;;;;;;0.20;0.20;;;;;;;;;;4438988;32;20097;-52
2022/02/18 00:46:14;;;;;;;0.30;0.10;;;;;;;;;;4445340;32;20034;-52
2022/02/18 00:48:44;;;;;;;0.32;0.17;;;;;;;;;;4438331;32;20033;-52
2022/02/18 00:51:14;;;;;;;0.13;0.13;;;;;;;;;;4436220;32;20071;-52
2022/02/18 00:53:45;;;;;;;0.10;0.10;;;;;;;;;;4434892;32;20056;-52
2022/02/18 00:56:13;;;;;;;0.20;0.20;;;;;;;;;;4441295;32;20106;-54
2022/02/18 00:58:42;;;;;;;0.52;0.20;;;;;;;;;;4436954;32;20424;-53
2022/02/18 01:01:10;;;;;;;0.10;0.10;;;;;;;;;;4436185;32;20053;-55
2022/02/18 01:03:39;;;;;;;0.30;0.17;;;;;;;;;;4436214;32;20060;-54
2022/02/18 01:06:07;;;;;;;0.28;0.10;;;;;;;;;;4441339;32;20081;-55
2022/02/18 01:08:35;;;;;;;0.28;0.10;;;;;;;;;;4433700;32;20033;-53
2022/02/18 01:11:04;;;;;;;0.32;0.10;;;;;;;;;;4429695;32;20429;-52
2022/02/18 01:13:35;;;;;;;0.10;0.10;;;;;;;;;;4432833;32;20104;-54
2022/02/18 01:16:03;;;;;;;0.20;0.20;;;;;;;;;;4435620;32;20045;-52
2022/02/18 01:18:32;;;;;;;0.43;0.13;;;;;;;;;;4432669;32;20165;-53
2022/02/18 01:21:01;;;;;;;0.82;0.20;;;;;;;;;;4436839;32;20061;-53
2022/02/18 01:23:29;;;;;;;0.45;0.10;;;;;;;;;;4436200;32;20125;-61
2022/02/18 01:25:57;;;;;;;0.10;0.10;;;;;;;;;;4439588;32;20085;-53
2022/02/18 01:28:26;;;;;;;0.80;0.20;;;;;;;;;;4435897;32;20101;-55
2022/02/18 01:30:55;;;;;;;0.55;0.10;;;;;;;;;;4426311;32;20046;-56
2022/02/18 01:33:23;;;;;;;0.13;0.13;;;;;;;;;;4431690;32;20042;-56
2022/02/18 01:35:52;;;;;;;0.10;0.10;;;;;;;;;;4438121;32;20088;-56
2022/02/18 01:38:20;;;;;;;0.30;0.15;;;;;;;;;;4436561;32;20042;-53
2022/02/18 01:40:48;;;;;;;0.10;0.10;;;;;;;;;;4427131;32;20038;-53
2022/02/18 01:43:17;;;;;;;0.20;0.10;;;;;;;;;;4441738;32;20115;-55
2022/02/18 01:45:46;;;;;;;0.60;0.20;;;;;;;;;;4435304;32;20038;-55
2022/02/18 01:48:14;;;;;;;0.17;0.17;;;;;;;;;;4430474;32;20106;-55
2022/02/18 01:50:43;;;;;;;0.20;0.20;;;;;;;;;;4434048;32;20069;-56
2022/02/18 01:53:12;;;;;;;0.32;0.30;;;;;;;;;;4439044;32;20182;-55
2022/02/18 01:55:40;;;;;;;1.98;0.20;;;;;;;;;;4438865;32;20034;-56
2022/02/18 01:58:09;;;;;;;0.22;0.10;;;;;;;;;;4441203;32;20109;-54
2022/02/18 02:00:38;;;;;;;0.82;0.20;;;;;;;;;;4438769;32;20120;-51
2022/02/18 02:03:07;;;;;;;0.28;0.15;;;;;;;;;;4431514;32;20093;-53
2022/02/18 02:05:35;;;;;;;0.40;0.25;;;;;;;;;;4434683;32;20046;-52
2022/02/18 02:08:03;;;;;;;0.20;0.20;;;;;;;;;;4442567;32;20060;-54
2022/02/18 02:10:34;;;;;;;0.60;0.20;;;;;;;;;;4431610;32;20105;-56
2022/02/18 02:13:03;;;;;;;0.20;0.20;;;;;;;;;;4437729;32;20042;-53
2022/02/18 02:15:32;;;;;;;0.47;0.20;;;;;;;;;;4437137;32;20425;-57
2022/02/18 02:18:03;;;;;;;0.13;0.10;;;;;;;;;;4436604;32;20433;-53
2022/02/18 02:20:33;;;;;;;0.32;0.30;;;;;;;;;;4443973;32;20489;-53
2022/02/18 02:23:01;;;;;;;0.75;0.30;;;;;;;;;;4425160;32;20099;-53
2022/02/18 02:25:36;;;;;;;0.25;0.10;;;;;;;;;;4432412;32;20038;-55
2022/02/18 02:28:10;;;;;;;0.10;0.10;;;;;;;;;;4429361;32;20143;-53
2022/02/18 02:30:39;;;;;;;0.30;0.15;;;;;;;;;;4433047;32;20046;-53
2022/02/18 02:33:07;;;;;;;0.20;0.20;;;;;;;;;;4427046;32;20054;-55
2022/02/18 02:35:37;;;;;;;1.40;0.20;;;;;;;;;;4434641;32;20365;-52
2022/02/18 02:38:06;;;;;;;0.95;0.20;;;;;;;;;;4434869;32;20042;-55
2022/02/18 02:40:34;;;;;;;0.95;0.30;;;;;;;;;;4436045;32;20041;-54
2022/02/18 02:43:03;;;;;;;0.15;0.10;;;;;;;;;;4435167;32;20424;-52
2022/02/18 02:45:31;;;;;;;0.20;0.10;;;;;;;;;;4434196;32;20064;-55
2022/02/18 02:48:01;;;;;;;0.45;0.30;;;;;;;;;;4440812;32;20068;-54
2022/02/18 02:50:34;;;;;;;0.57;0.25;;;;;;;;;;4433833;32;20433;-55
2022/02/18 02:53:02;;;;;;;0.45;0.20;;;;;;;;;;4430603;32;20056;-54
2022/02/18 02:55:31;;;;;;;1.40;0.17;;;;;;;;;;4435161;32;20046;-56
2022/02/18 02:58:02;;;;;;;1.50;0.17;;;;;;;;;;4440531;32;20061;-56
2022/02/18 03:00:30;;;;;;;0.40;0.10;;;;;;;;;;4426245;32;20105;-56
2022/02/18 03:02:59;;;;;;;1.12;0.20;;;;;;;;;;4426405;32;20053;-56
2022/02/18 03:05:29;;;;;;;0.15;0.15;;;;;;;;;;4432050;32;20049;-56
2022/02/18 03:07:58;;;;;;;0.35;0.20;;;;;;;;;;4431569;32;20462;-54
2022/02/18 03:10:27;;;;;;;0.30;0.17;;;;;;;;;;4440776;32;20030;-53
2022/02/18 03:12:56;;;;;;;0.13;0.10;;;;;;;;;;4438397;32;20053;-56
2022/02/18 03:15:24;;;;;;;0.37;0.20;;;;;;;;;;4427542;32;20366;-55
2022/02/18 03:17:53;;;;;;;1.00;0.20;;;;;;;;;;4433913;32;20052;-54
2022/02/18 03:20:22;;;;;;;0.20;0.17;;;;;;;;;;4436111;32;20065;-54
2022/02/18 03:22:50;;;;;;;0.68;0.10;;;;;;;;;;4438872;32;20101;-53
2022/02/18 03:25:19;;;;;;;0.30;0.10;;;;;;;;;;4433796;32;20042;-53
2022/02/18 03:27:47;;;;;;;1.25;0.20;;;;;;;;;;4426976;32;20086;-53
2022/02/18 03:30:16;;;;;;;0.20;0.20;;;;;;;;;;4431165;32;20045;-53
2022/02/18 03:32:45;;;;;;;0.30;0.10;;;;;;;;;;4437705;32;20065;-52
2022/02/18 03:35:15;;;;;;;0.10;0.10;;;;;;;;;;4434740;32;20042;-52
2022/02/18 03:37:44;;;;;;;0.52;0.20;;;;;;;;;;4424970;32;20076;-56
2022/02/18 03:40:14;;;;;;;0.90;0.17;;;;;;;;;;4438234;32;20416;-56
2022/02/18 03:42:42;;;;;;;0.40;0.20;;;;;;;;;;4439083;32;20388;-55
2022/02/18 03:45:10;;;;;;;0.30;0.20;;;;;;;;;;4437288;32;20060;-54
2022/02/18 03:47:39;;;;;;;1.05;0.20;;;;;;;;;;4425322;32;20428;-53
2022/02/18 03:50:09;;;;;;;0.22;0.20;;;;;;;;;;4425537;32;20045;-56
2022/02/18 03:52:37;;;;;;;0.13;0.13;;;;;;;;;;4433010;32;20042;-55
2022/02/18 03:55:06;;;;;;;0.40;0.20;;;;;;;;;;4438290;32;20443;-53
2022/02/18 03:57:35;;;;;;;0.88;0.20;;;;;;;;;;4438762;32;20116;-54
2022/02/18 04:00:10;;;;;;;0.20;0.10;;;;;;;;;;4435238;32;20057;-56
2022/02/18 04:02:45;;;;;;;0.37;0.20;;;;;;;;;;4427653;32;20034;-54
2022/02/18 04:05:16;;;;;;;0.30;0.15;;;;;;;;;;4435431;32;20060;-53
2022/02/18 04:07:44;;;;;;;0.20;0.15;;;;;;;;;;4439968;32;20104;-53
2022/02/18 04:10:13;;;;;;;0.80;0.10;;;;;;;;;;4432814;32;20053;-54
2022/02/18 04:12:41;;;;;;;0.25;0.20;;;;;;;;;;4437223;32;20110;-55
2022/02/18 04:15:11;;;;;;;0.47;0.20;;;;;;;;;;4438484;32;20433;-52
2022/02/18 04:17:39;;;;;;;0.22;0.20;;;;;;;;;;4436938;32;20046;-56
2022/02/18 04:20:08;;;;;;;0.10;0.10;;;;;;;;;;4438086;32;20077;-56
2022/02/18 04:22:57;;;;;;;0.88;0.20;;;;;;;;;;4429464;32;20053;-54
2022/02/18 04:25:26;;;;;;;0.45;0.10;;;;;;;;;;4448808;32;20068;-54
2022/02/18 04:27:55;;;;;;;0.10;0.10;;;;;;;;;;4434668;32;20050;-52
2022/02/18 04:30:23;;;;;;;0.30;0.10;;;;;;;;;;4431370;32;20053;-53
2022/02/18 04:32:52;;;;;;;0.20;0.10;;;;;;;;;;4433208;32;20460;-52
2022/02/18 04:35:21;;;;;;;0.20;0.20;;;;;;;;;;4430627;32;20118;-55
2022/02/18 04:37:49;;;;;;;0.10;0.10;;;;;;;;;;4439214;32;20474;-53
2022/02/18 04:40:18;;;;;;;0.28;0.10;;;;;;;;;;4442651;32;20046;-53
2022/02/18 04:42:47;;;;;;;0.10;0.10;;;;;;;;;;4426019;32;20416;-55
2022/02/18 04:45:15;;;;;;;0.65;0.20;;;;;;;;;;4445440;32;20047;-54
2022/02/18 04:47:43;;;;;;;0.10;0.10;;;;;;;;;;4427189;32;20057;-55
2022/02/18 04:50:12;;;;;;;0.43;0.20;;;;;;;;;;4432618;32;20060;-53
2022/02/18 04:52:41;;;;;;;0.20;0.10;;;;;;;;;;4438932;32;20046;-56
2022/02/18 04:55:09;;;;;;;0.93;0.13;;;;;;;;;;4431261;32;20059;-54
2022/02/18 04:57:38;;;;;;;0.50;0.20;;;;;;;;;;4441148;32;20046;-55
2022/02/18 05:00:07;;;;;;;0.20;0.20;;;;;;;;;;4428645;32;20403;-54
2022/02/18 05:02:36;;;;;;;0.10;0.10;;;;;;;;;;4435202;32;20061;-52
2022/02/18 05:05:05;;;;;;;0.28;0.28;;;;;;;;;;4444312;32;20037;-55
2022/02/18 05:07:33;;;;;;;0.45;0.10;;;;;;;;;;4439782;32;20102;-56
2022/02/18 05:10:03;;;;;;;0.10;0.10;;;;;;;;;;4430963;32;20041;-53
2022/02/18 05:12:31;;;;;;;0.32;0.10;;;;;;;;;;4423255;32;20081;-53
2022/02/18 05:14:59;;;;;;;0.65;0.20;;;;;;;;;;4446522;32;20061;-53
2022/02/18 05:17:30;;;;;;;0.73;0.10;;;;;;;;;;4433871;32;20085;-56
2022/02/18 05:19:59;;;;;;;0.10;0.10;;;;;;;;;;4437361;32;20057;-54
2022/02/18 05:22:27;;;;;;;0.30;0.13;;;;;;;;;;4426483;32;20059;-55
2022/02/18 05:24:55;;;;;;;0.80;0.30;;;;;;;;;;4439148;32;20062;-55
2022/02/18 05:27:23;;;;;;;0.20;0.20;;;;;;;;;;4443459;32;24573;-56
2022/02/18 05:29:52;;;;;;;0.10;0.10;;;;;;;;;;4432727;32;20068;-53
2022/02/18 05:32:20;;;;;;;1.00;0.10;;;;;;;;;;4431916;32;20068;-55
2022/02/18 05:34:49;;;;;;;0.10;0.10;;;;;;;;;;4441340;32;20045;-53
2022/02/18 05:37:17;;;;;;;0.37;0.20;;;;;;;;;;4430470;32;20043;-55
2022/02/18 05:39:47;;;;;;;0.15;0.10;;;;;;;;;;4440034;32;20094;-53
2022/02/18 05:42:15;;;;;;;0.10;0.10;;;;;;;;;;4432832;32;20050;-53
2022/02/18 05:44:43;;;;;;;0.10;0.10;;;;;;;;;;4433641;32;20068;-56
2022/02/18 05:47:12;;;;;;;0.95;0.10;;;;;;;;;;4437879;32;20030;-57
2022/02/18 05:49:40;;;;;;;0.20;0.20;;;;;;;;;;4439888;32;20479;-56
2022/02/18 05:52:08;;;;;;;0.10;0.10;;;;;;;;;;4431711;32;20042;-56
2022/02/18 05:54:37;;;;;;;0.20;0.20;;;;;;;;;;4438169;32;20350;-53
2022/02/18 05:57:05;;;;;;;0.37;0.10;;;;;;;;;;4439716;32;20056;-55
2022/02/18 05:59:33;;;;;;;0.10;0.10;;;;;;;;;;4433187;32;20466;-52
2022/02/18 06:02:02;;;;;;;0.10;0.10;;;;;;;;;;4427500;32;20045;-56
2022/02/18 06:04:30;;;;;;;0.10;0.10;;;;;;;;;;4434656;32;20053;-55
2022/02/18 06:06:59;;;;;;;0.15;0.10;;;;;;;;;;4436626;32;20444;-55
2022/02/18 06:09:27;;;;;;;0.30;0.17;;;;;;;;;;4440327;32;20049;-57
2022/02/18 06:11:55;;;;;;;0.20;0.10;;;;;;;;;;4438959;32;20045;-55
2022/02/18 06:14:24;;;;;;;0.35;0.20;;;;;;;;;;4437808;32;20070;-57
2022/02/18 06:16:52;;;;;;;0.20;0.10;;;;;;;;;;4437863;32;20033;-56
2022/02/18 06:19:20;;;;;;;0.10;0.10;;;;;;;;;;4441245;32;20372;-55
2022/02/18 06:21:48;;;;;;;0.17;0.10;;;;;;;;;;4439867;32;20151;-54
2022/02/18 06:24:17;;;;;;;0.43;0.10;;;;;;;;;;4439585;32;20037;-56
2022/02/18 06:26:46;;;;;;;0.10;0.10;;;;;;;;;;4438644;32;20053;-56
2022/02/18 06:29:14;;;;;;;0.20;0.10;;;;;;;;;;4444690;32;20038;-52
2022/02/18 06:31:42;;;;;;;0.40;0.10;;;;;;;;;;4437829;32;20042;-55
2022/02/18 06:34:10;;;;;;;0.10;0.10;;;;;;;;;;4438492;32;20030;-55
2022/02/18 06:36:39;;;;;;;1.73;0.25;;;;;;;;;;4422678;32;20485;-56
2022/02/18 06:39:07;;;;;;;0.10;0.10;;;;;;;;;;4446936;32;20461;-56
2022/02/18 06:41:36;;;;;;;0.15;0.10;;;;;;;;;;4436934;32;20098;-56
2022/02/18 06:44:05;;;;;;;0.15;0.10;;;;;;;;;;4439306;32;20035;-56
2022/02/18 06:46:33;;;;;;;0.37;0.15;;;;;;;;;;4443600;32;20426;-55
2022/02/18 06:49:02;;;;;;;0.10;0.10;;;;;;;;;;4428047;32;20058;-56
2022/02/18 06:51:30;;;;;;;0.10;0.10;;;;;;;;;;4431151;32;20133;-53
2022/02/18 06:53:58;;;;;;;0.05;0.05;;;;;;;;;;4432533;32;20065;-53
2022/02/18 06:56:46;;;;;;;0.40;0.10;;;;;;;;;;4440368;32;20061;-56
2022/02/18 06:59:15;;;;;;;0.35;0.10;;;;;;;;;;4423899;32;20083;-54
2022/02/18 07:01:43;;;;;;;0.35;0.10;;;;;;;;;;4435391;32;20054;-54
2022/02/18 07:04:12;;;;;;;0.10;0.10;;;;;;;;;;4431651;32;20092;-56
2022/02/18 07:06:40;;;;;;;0.10;0.10;;;;;;;;;;4445629;32;20130;-54
2022/02/18 07:09:11;;;;;;;0.10;0.10;;;;;;;;;;4440548;32;20435;-54
2022/02/18 07:11:40;;;;;;;0.10;0.10;;;;;;;;;;4444147;32;20361;-56
2022/02/18 07:14:11;;;;;;;0.10;0.10;;;;;;;;;;4440299;32;20075;-53
2022/02/18 07:16:41;;;;;;;0.00;0.00;;;;;;;;;;4439692;32;20423;-55
2022/02/18 07:19:13;;;;;;;0.10;0.10;;;;;;;;;;4441263;32;20163;-53
2022/02/18 07:21:42;;;;;;;0.10;0.10;;;;;;;;;;4449268;32;20318;-53
2022/02/18 07:24:11;;;;;;;0.10;0.10;;;;;;;;;;4442394;32;20099;-56
2022/02/18 07:26:40;;;;;;;0.10;0.10;;;;;;;;;;4442280;32;20113;-57
2022/02/18 07:29:08;;;;;;;0.10;0.10;;;;;;;;;;4433821;32;20382;-56
2022/02/18 07:31:37;;;;;;;0.05;0.05;;;;;;;;;;4432518;32;20057;-53
2022/02/18 07:34:05;;;;;;;0.00;0.00;;;;;;;;;;4424509;32;20042;-56
2022/02/18 07:36:34;;;;;;;0.10;0.10;;;;;;;;;;4441813;32;20077;-55
2022/02/18 07:39:02;;;;;;;1.10;0.10;;;;;;;;;;4437403;32;20075;-55
2022/02/18 07:41:30;;;;;;;0.10;0.10;;;;;;;;;;4440549;32;20172;-53
2022/02/18 07:43:59;;;;;;;0.22;0.20;;;;;;;;;;4435552;32;20031;-53
2022/02/18 07:46:27;;;;;;;0.73;0.10;;;;;;;;;;4436422;32;20034;-52
2022/02/18 07:48:56;;;;;;;0.10;0.10;;;;;;;;;;4431598;32;20050;-55
2022/02/18 07:51:25;;;;;;;0.10;0.10;;;;;;;;;;4431879;32;20046;-54
2022/02/18 07:53:53;;;;;;;0.10;0.10;;;;;;;;;;4441489;32;20397;-52
2022/02/18 07:56:23;;;;;;;0.57;0.10;;;;;;;;;;4429880;32;20056;-53
2022/02/18 07:58:53;;;;;;;0.10;0.10;;;;;;;;;;4445149;32;20429;-55
2022/02/18 08:01:21;;;;;;;0.10;0.10;;;;;;;;;;4441678;32;20484;-54
2022/02/18 08:03:51;;;;;;;2.40;0.20;;;;;;;;;;4432032;32;20038;-54
2022/02/18 08:06:19;;;;;;;0.10;0.10;;;;;;;;;;4443686;32;20100;-52
2022/02/18 08:08:47;;;;;;;0.62;0.10;;;;;;;;;;4444622;32;20168;-52
2022/02/18 08:11:18;;;;;;;0.95;0.20;;;;;;;;;;4440406;32;20039;-54
2022/02/18 08:13:47;;;;;;;0.10;0.10;;;;;;;;;;4446362;32;20086;-52
2022/02/18 08:16:15;;;;;;;0.10;0.10;;;;;;;;;;4443367;32;20038;-51
2022/02/18 08:18:44;;;;;;;0.13;0.10;;;;;;;;;;4430654;32;20425;-54
2022/02/18 08:21:13;;;;;;;0.10;0.10;;;;;;;;;;4438712;32;20379;-51
2022/02/18 08:23:42;;;;;;;0.10;0.10;;;;;;;;;;4445242;32;20096;-56
2022/02/18 08:26:10;;;;;;;0.00;0.00;;;;;;;;;;4428241;32;20093;-53
2022/02/18 08:28:41;;;;;;;0.03;0.03;;;;;;;;;;4445891;32;20115;-56
2022/02/18 08:31:10;;;;;;;0.30;0.10;;;;;;;;;;4449183;32;20018;-53
2022/02/18 08:33:38;;;;;;;0.35;0.10;;;;;;;;;;4442108;32;20050;-55
2022/02/18 08:36:07;;;;;;;1.10;0.10;;;;;;;;;;4440144;32;20049;-52
2022/02/18 08:38:36;;;;;;;0.17;0.10;;;;;;;;;;4444140;32;20413;-54
2022/02/18 08:41:04;;;;;;;0.10;0.10;;;;;;;;;;4441060;32;20102;-52
2022/02/18 08:43:33;;;;;;;0.00;0.00;;;;;;;;;;4441101;32;20043;-52
2022/02/18 08:46:02;;;;;;;0.10;0.10;;;;;;;;;;4434631;32;20074;-53
2022/02/18 08:48:30;;;;;;;0.13;0.10;;;;;;;;;;4438662;32;20432;-55
2022/02/18 08:50:59;;;;;;;0.30;0.10;;;;;;;;;;4434788;32;20078;-55
2022/02/18 08:53:28;;;;;;;0.25;0.10;;;;;;;;;;4443241;32;20426;-56
2022/02/18 08:55:58;;;;;;;0.20;0.10;;;;;;;;;;4442649;32;20037;-55
2022/02/18 08:58:28;;;;;;;0.08;0.08;;;;;;;;;;4440846;32;20049;-53
2022/02/18 09:00:56;;;;;;;0.10;0.10;;;;;;;;;;4432783;32;20046;-53
2022/02/18 09:03:25;;;;;;;0.10;0.10;;;;;;;;;;4441663;32;20425;-54
2022/02/18 09:05:53;;;;;;;0.93;0.10;;;;;;;;;;4443378;32;20038;-55
2022/02/18 09:08:24;;;;;;;0.10;0.10;;;;;;;;;;4438336;32;20017;-55
2022/02/18 09:10:53;;;;;;;0.10;0.10;;;;;;;;;;4433496;32;20042;-53
2022/02/18 09:13:24;;;;;;;0.10;0.10;;;;;;;;;;4432524;32;20450;-53
2022/02/18 09:15:53;;;;;;;0.22;0.10;;;;;;;;;;4424624;32;20041;-55
2022/02/18 09:18:22;;;;;;;0.00;0.00;;;;;;;;;;4434678;32;20076;-51
2022/02/18 09:20:50;;;;;;;3.83;0.17;;;;;;;;;;4431061;32;20349;-52
2022/02/18 09:23:18;;;;;;;0.20;0.20;;;;;;;;;;4438683;32;20090;-55
2022/02/18 09:25:48;;;;;;;0.60;0.10;;;;;;;;;;4427242;32;20108;-56
2022/02/18 09:28:16;;;;;;;0.50;0.10;;;;;;;;;;4435903;32;20116;-55
2022/02/18 09:30:47;;;;;;;0.10;0.10;;;;;;;;;;4443129;32;20042;-56
2022/02/18 09:33:17;;;;;;;0.08;0.08;;;;;;;;;;4446994;32;20048;-55
2022/02/18 09:35:47;;;;;;;0.60;0.10;;;;;;;;;;4436918;32;20038;-55
2022/02/18 09:38:15;;;;;;;1.15;0.10;;;;;;;;;;4427483;32;20095;-54
2022/02/18 09:40:44;;;;;;;0.03;0.03;;;;;;;;;;4436398;32;20046;-56
2022/02/18 09:43:14;;;;;;;1.75;0.10;;;;;;;;;;4429974;32;20056;-56
2022/02/18 09:45:44;;;;;;;2.05;0.10;;;;;;;;;;4439885;32;20064;-54
2022/02/18 09:48:15;;;;;;;1.00;0.20;;;;;;;;;;4432718;32;20060;-56
2022/02/18 09:50:43;;;;;;;0.20;0.10;;;;;;;;;;4434874;32;20518;-55
2022/02/18 09:53:18;;;;;;;0.47;0.10;;;;;;;;;;4437511;32;20049;-53
2022/02/18 09:55:46;;;;;;;0.20;0.10;;;;;;;;;;4436514;32;20097;-56
2022/02/18 09:58:22;;;;;;;0.10;0.10;;;;;;;;;;4435051;32;20129;-56
2022/02/18 10:00:51;;;;;;;0.20;0.10;;;;;;;;;;4439012;32;20065;-56
2022/02/18 10:03:20;;;;;;;1.75;0.17;;;;;;;;;;4431743;32;20507;-56
2022/02/18 10:05:49;;;;;;;0.10;0.10;;;;;;;;;;4438158;32;20049;-55
2022/02/18 10:08:18;;;;;;;0.43;0.10;;;;;;;;;;4435211;32;20432;-55
2022/02/18 10:11:03;;;;;;;0.20;0.20;;;;;;;;;;4428643;32;20087;-56
2022/02/18 10:13:37;;;;;;;0.17;0.10;;;;;;;;;;4435416;32;20396;-54
2022/02/18 10:16:13;;;;;;;0.35;0.10;;;;;;;;;;4434046;32;20038;-55
2022/02/18 10:18:55;;;;;;;0.10;0.10;;;;;;;;;;4439299;32;20513;-52
2022/02/18 10:21:26;;;;;;;1.17;0.10;;;;;;;;;;4444671;32;20041;-56
2022/02/18 10:24:13;;;;;;;0.10;0.10;;;;;;;;;;4433756;32;20053;-52
2022/02/18 10:26:43;;;;;;;0.20;0.10;;;;;;;;;;4440303;32;20035;-54
2022/02/18 10:29:18;;;;;;;1.87;0.10;;;;;;;;;;4441833;32;20100;-53
2022/02/18 10:32:06;;;;;;;0.40;0.10;;;;;;;;;;4434495;32;20085;-54
2022/02/18 10:34:54;;;;;;;0.10;0.10;;;;;;;;;;4433786;32;20076;-53
2022/02/18 10:37:24;;;;;;;0.70;0.20;;;;;;;;;;4436054;32;20061;-55
2022/02/18 10:40:13;;;;;;;0.57;0.20;;;;;;;;;;4437793;32;20189;-54
2022/02/18 10:42:43;;;;;;;0.20;0.10;;;;;;;;;;4430569;32;20039;-55
2022/02/18 10:45:11;;;;;;;3.22;0.10;;;;;;;;;;4432594;32;20144;-52
2022/02/18 10:47:41;;;;;;;0.20;0.15;;;;;;;;;;4436020;32;20042;-52
2022/02/18 10:50:26;;;;;;;0.20;0.20;;;;;;;;;;4448762;32;20038;-54
2022/02/18 10:53:15;;;;;;;0.37;0.20;;;;;;;;;;4440400;32;20038;-53
2022/02/18 10:55:51;;;;;;;0.43;0.10;;;;;;;;;;4440703;32;20426;-55
2022/02/18 10:58:23;;;;;;;0.10;0.10;;;;;;;;;;4450686;32;20034;-53
2022/02/18 11:01:12;;;;;;;1.23;0.20;;;;;;;;;;4434798;32;20111;-53
2022/02/18 11:03:41;;;;;;;0.20;0.10;;;;;;;;;;4447014;32;20378;-56
2022/02/18 11:06:14;;;;;;;0.57;0.20;;;;;;;;;;4440487;32;20054;-52
2022/02/18 11:08:58;;;;;;;0.37;0.20;;;;;;;;;;4434558;32;20034;-55
2022/02/18 11:11:32;;;;;;;0.40;0.30;;;;;;;;;;4437571;32;20034;-55
2022/02/18 11:14:04;;;;;;;0.20;0.10;;;;;;;;;;4436614;32;20064;-54
2022/02/18 11:16:34;;;;;;;0.40;0.13;;;;;;;;;;4442189;32;20056;-51
2022/02/18 11:19:02;;;;;;;0.55;0.10;;;;;;;;;;4448533;32;20383;-55
2022/02/18 11:21:31;;;;;;;0.20;0.20;;;;;;;;;;4442320;32;20097;-52
2022/02/18 11:24:00;;;;;;;0.47;0.20;;;;;;;;;;4428256;32;20069;-52
2022/02/18 11:26:30;;;;;;;1.08;0.10;;;;;;;;;;4437859;32;20037;-55
2022/02/18 11:29:02;;;;;;;1.55;0.20;;;;;;;;;;4430639;32;20043;-51
2022/02/18 11:31:33;;;;;;;1.75;0.20;;;;;;;;;;4427292;32;20529;-55
2022/02/18 11:34:07;;;;;;;1.08;0.20;;;;;;;;;;4431066;32;20085;-52
2022/02/18 11:36:54;;;;;;;0.80;0.20;;;;;;;;;;4438692;32;20421;-54
2022/02/18 11:39:43;;;;;;;0.20;0.20;;;;;;;;;;4437446;32;20124;-54
2022/02/18 11:42:14;;;;;;;0.95;0.20;;;;;;;;;;4412864;32;20197;-53
2022/02/18 11:44:43;;;;;;;1.05;0.20;;;;;;;;;;4435668;32;20060;-55
2022/02/18 11:47:16;;;;;;;1.77;0.20;;;;;;;;;;4431650;32;20105;-53
2022/02/18 11:49:46;;;;;;;1.08;0.28;;;;;;;;;;4435498;32;20472;-56
2022/02/18 11:52:16;;;;;;;0.60;0.20;;;;;;;;;;4433620;32;20192;-54
2022/02/18 11:54:45;;;;;;;0.52;0.20;;;;;;;;;;4438499;32;20042;-55
2022/02/18 11:57:15;;;;;;;2.17;0.20;;;;;;;;;;4431430;32;20157;-54
2022/02/18 12:00:02;;;;;;;1.85;0.20;;;;;;;;;;4430937;32;20416;-53
2022/02/18 12:02:40;;;;;;;0.57;0.15;;;;;;;;;;4433200;32;20177;-54
2022/02/18 12:05:19;;;;;;;0.15;0.15;;;;;;;;;;4443993;32;20050;-56
2022/02/18 12:07:48;;;;;;;0.73;0.13;;;;;;;;;;4434729;32;20042;-55
2022/02/18 12:10:23;;;;;;;0.25;0.20;;;;;;;;;;4436466;32;20040;-55
2022/02/18 12:12:59;;;;;;;0.10;0.10;;;;;;;;;;4445417;32;20544;-53
2022/02/18 12:15:29;;;;;;;1.00;0.20;;;;;;;;;;4442305;32;20037;-53
2022/02/18 12:18:03;;;;;;;0.90;0.10;;;;;;;;;;4445443;32;20085;-55
2022/02/18 12:20:37;;;;;;;0.28;0.20;;;;;;;;;;4438638;32;20034;-53
2022/02/18 12:23:24;;;;;;;0.15;0.10;;;;;;;;;;4436456;32;20098;-54
2022/02/18 12:26:12;;;;;;;0.30;0.10;;;;;;;;;;4434642;32;20033;-55
2022/02/18 12:28:40;;;;;;;0.30;0.20;;;;;;;;;;4428654;32;20072;-55
2022/02/18 12:31:09;;;;;;;0.35;0.20;;;;;;;;;;4445171;32;20440;-55
2022/02/18 12:33:38;;;;;;;0.47;0.15;;;;;;;;;;4430880;32;20052;-55
2022/02/18 12:36:11;;;;;;;0.45;0.20;;;;;;;;;;4433337;32;20117;-53
2022/02/18 12:38:44;;;;;;;1.20;0.37;;;;;;;;;;4440023;32;20060;-52
2022/02/18 12:41:17;;;;;;;1.70;0.30;;;;;;;;;;4444403;32;20056;-54
2022/02/18 12:43:47;;;;;;;2.70;0.20;;;;;;;;;;4440104;32;20046;-56
2022/02/18 12:46:16;;;;;;;12.68;0.35;;;;;;;;;;4434449;32;20034;-54
2022/02/18 12:48:47;;;;;;;3.35;0.47;;;;;;;;;;4429131;32;20077;-55
2022/02/18 12:51:25;;;;;;;7.40;0.40;;;;;;;;;;4434706;32;20034;-57
2022/02/18 12:53:57;;;;;;;7.10;0.60;;;;;;;;;;4436314;32;20042;-58
2022/02/18 12:56:27;;;;;;;8.73;0.88;;;;;;;;;;4428426;32;20037;-58
2022/02/18 12:58:58;;;;;;;7.18;0.73;;;;;;;;;;4425441;32;20105;-58
2022/02/18 13:01:28;;;;;;;4.85;1.00;;;;;;;;;;4434838;32;20033;-59
2022/02/18 13:03:57;;;;;;;7.95;0.80;;;;;;;;;;4442579;32;20056;-59
2022/02/18 13:06:25;;;;;;;3.47;0.90;;;;;;;;;;4440794;32;20424;-59
2022/02/18 13:08:53;;;;;;;3.75;0.90;;;;;;;;;;4426119;32;20057;-59
2022/02/18 13:11:23;;;;;;;5.40;1.08;;;;;;;;;;4438263;32;20428;-59
2022/02/18 13:13:52;;;;;;;5.07;1.00;;;;;;;;;;4436476;32;20077;-59
2022/02/18 13:16:24;;;;;;;5.97;0.90;;;;;;;;;;4427658;32;20090;-59
2022/02/18 13:18:55;;;;;;;3.53;0.80;;;;;;;;;;4430264;32;20418;-58
2022/02/18 13:21:23;;;;;;;8.43;1.20;;;;;;;;;;4433545;32;20452;-59
2022/02/18 13:23:52;;;;;;;4.47;1.00;;;;;;;;;;4432610;32;20136;-58
2022/02/18 13:26:25;;;;;;;2.60;0.95;;;;;;;;;;4445141;32;20034;-59
2022/02/18 13:28:57;;;;;;;5.35;0.93;;;;;;;;;;4430954;32;20053;-59
2022/02/18 13:31:46;;;;;;;7.03;1.10;;;;;;;;;;4435235;32;20365;-59
2022/02/18 13:34:14;;;;;;;3.72;0.90;;;;;;;;;;4434116;32;20038;-59
2022/02/18 13:36:42;;;;;;;9.35;1.08;;;;;;;;;;4438785;32;20050;-59
2022/02/18 13:39:14;;;;;;;8.45;0.85;;;;;;;;;;4429608;32;20762;-59
2022/02/18 13:41:46;;;;;;;4.80;0.85;;;;;;;;;;4444882;32;20050;-59
2022/02/18 13:44:17;;;;;;;4.53;0.85;;;;;;;;;;4440572;32;20516;-59
2022/02/18 13:46:53;;;;;;;4.95;1.08;;;;;;;;;;4442375;32;20038;-58
2022/02/18 13:49:23;;;;;;;6.60;1.10;;;;;;;;;;4432792;32;20503;-60
2022/02/18 13:51:55;;;;;;;3.03;0.82;;;;;;;;;;4446356;32;20077;-59
2022/02/18 13:54:28;;;;;;;6.47;1.12;;;;;;;;;;4438199;32;20396;-59
2022/02/18 13:57:06;;;;;;;6.60;1.00;;;;;;;;;;4432172;32;20041;-59
2022/02/18 13:59:35;;;;;;;6.05;1.10;;;;;;;;;;4430735;32;20046;-58
2022/02/18 14:02:06;;;;;;;7.78;0.95;;;;;;;;;;4432664;32;20038;-59
2022/02/18 14:04:38;;;;;;;4.32;0.75;;;;;;;;;;4438771;32;20374;-58
2022/02/18 14:07:10;;;;;;;5.75;1.02;;;;;;;;;;4446363;32;20086;-59
2022/02/18 14:09:42;;;;;;;5.75;0.90;;;;;;;;;;4424794;32;20046;-58
2022/02/18 14:12:12;;;;;;;8.85;1.00;;;;;;;;;;4444753;32;20042;-59
2022/02/18 14:14:41;;;;;;;8.80;0.90;;;;;;;;;;4433847;32;20034;-58
2022/02/18 14:17:09;;;;;;;5.82;1.08;;;;;;;;;;4439475;32;20120;-58
2022/02/18 14:19:45;;;;;;;6.60;1.02;;;;;;;;;;4434298;32;20053;-59
2022/02/18 14:22:25;;;;;;;5.87;1.10;;;;;;;;;;4439288;32;20074;-63
2022/02/18 14:24:53;;;;;;;5.50;1.17;;;;;;;;;;4437825;32;20060;-59
2022/02/18 14:27:23;;;;;;;7.50;1.10;;;;;;;;;;4444382;32;20077;-55
2022/02/18 14:29:55;;;;;;;4.55;0.80;;;;;;;;;;4439161;32;20412;-59
2022/02/18 14:32:25;;;;;;;8.82;1.37;;;;;;;;;;4433600;32;20151;-56
2022/02/18 14:34:58;;;;;;;8.00;1.10;;;;;;;;;;4437837;32;20113;-53
2022/02/18 14:37:27;;;;;;;8.73;1.48;;;;;;;;;;4432608;32;20038;-53
2022/02/18 14:39:55;;;;;;;7.87;0.98;;;;;;;;;;4430383;32;20050;-55
2022/02/18 14:42:31;;;;;;;9.60;1.20;;;;;;;;;;4437147;32;20038;-53
2022/02/18 14:45:05;;;;;;;5.57;0.80;;;;;;;;;;4440491;32;20070;-54
2022/02/18 14:47:36;;;;;;;4.62;0.77;;;;;;;;;;4425063;32;20057;-52
2022/02/18 14:50:07;;;;;;;4.05;0.80;;;;;;;;;;4442794;32;20371;-54
2022/02/18 14:52:39;;;;;;;4.75;0.60;;;;;;;;;;4432796;32;20101;-55
2022/02/18 14:55:08;;;;;;;2.85;0.65;;;;;;;;;;4435327;32;20060;-56
2022/02/18 14:57:37;;;;;;;3.42;0.77;;;;;;;;;;4436170;32;20042;-54
2022/02/18 15:00:08;;;;;;;3.62;0.68;;;;;;;;;;4434126;32;20403;-53
2022/02/18 15:02:37;;;;;;;5.30;0.68;;;;;;;;;;4435427;32;20443;-56